createdAt,value
2022-08-08T00:00:52.851Z,1016.23
2022-08-08T00:01:08.004Z,1016.25
2022-08-08T00:02:03.035Z,1016.29
2022-08-08T00:02:50.750Z,1016.31
2022-08-08T00:03:49.753Z,1016.32
2022-08-08T00:04:53.114Z,1016.30
2022-08-08T00:06:03.392Z,1016.28
2022-08-08T00:06:50.722Z,1016.26
2022-08-08T00:07:49.704Z,1016.28
2022-08-08T00:08:49.885Z,1016.28
2022-08-08T00:09:52.466Z,1016.27
2022-08-08T00:10:49.819Z,1016.27
2022-08-08T00:12:07.766Z,1016.24
2022-08-08T00:12:56.620Z,1016.22
2022-08-08T00:14:15.290Z,1016.21
2022-08-08T00:14:59.177Z,1016.26
2022-08-08T00:15:55.838Z,1016.26
2022-08-08T00:16:50.596Z,1016.24
2022-08-08T00:18:03.538Z,1016.25
2022-08-08T00:18:50.597Z,1016.25
2022-08-08T00:19:51.484Z,1016.18
2022-08-08T00:20:50.456Z,1016.19
2022-08-08T00:21:49.539Z,1016.18
2022-08-08T00:22:49.536Z,1016.21
2022-08-08T00:23:51.474Z,1016.20
2022-08-08T00:24:49.516Z,1016.17
2022-08-08T00:25:50.892Z,1016.17
2022-08-08T00:26:49.507Z,1016.16
2022-08-08T00:27:49.476Z,1016.17
2022-08-08T00:28:49.488Z,1016.17
2022-08-08T00:29:49.452Z,1016.18
2022-08-08T00:31:00.672Z,1016.17
2022-08-08T00:32:20.809Z,1016.18
2022-08-08T00:32:50.426Z,1016.16
2022-08-08T00:34:18.791Z,1016.19
2022-08-08T00:34:50.399Z,1016.17
2022-08-08T00:35:49.391Z,1016.17
2022-08-08T00:36:51.633Z,1016.20
2022-08-08T00:38:01.616Z,1016.18
2022-08-08T00:38:51.894Z,1016.20
2022-08-08T00:41:07.362Z,1016.19
2022-08-08T00:41:09.361Z,1016.16
2022-08-08T00:42:07.767Z,1016.21
2022-08-08T00:42:50.343Z,1016.17
2022-08-08T00:43:59.290Z,1016.17
2022-08-08T00:44:50.996Z,1016.20
2022-08-08T00:45:49.280Z,1016.19
2022-08-08T00:46:56.817Z,1016.19
2022-08-08T00:48:04.944Z,1016.19
2022-08-08T00:48:50.243Z,1016.18
2022-08-08T00:49:59.090Z,1016.20
2022-08-08T00:50:52.330Z,1016.21
2022-08-08T00:51:49.204Z,1016.15
2022-08-08T00:52:51.404Z,1016.16
2022-08-08T00:53:56.966Z,1016.16
2022-08-08T00:54:50.182Z,1016.15
2022-08-08T00:55:53.227Z,1016.18
2022-08-08T00:56:50.175Z,1016.18
2022-08-08T00:57:58.031Z,1016.12
2022-08-08T00:58:54.557Z,1016.17
2022-08-08T00:59:49.134Z,1016.17
2022-08-08T01:00:50.687Z,1016.16
2022-08-08T01:01:49.173Z,1016.18
2022-08-08T01:03:57.632Z,1016.14
2022-08-08T01:03:58.391Z,1016.21
2022-08-08T01:04:50.063Z,1016.17
2022-08-08T01:05:59.380Z,1016.17
2022-08-08T01:06:50.038Z,1016.21
2022-08-08T01:07:55.689Z,1016.18
2022-08-08T01:08:51.961Z,1016.17
2022-08-08T01:09:49.066Z,1016.17
2022-08-08T01:10:50.874Z,1016.17
2022-08-08T01:11:51.974Z,1016.17
2022-08-08T01:12:48.970Z,1016.15
2022-08-08T01:13:52.796Z,1016.14
2022-08-08T01:14:54.588Z,1016.18
2022-08-08T01:15:54.344Z,1016.19
2022-08-08T01:16:48.929Z,1016.18
2022-08-08T01:17:54.125Z,1016.17
2022-08-08T01:18:52.427Z,1016.18
2022-08-08T01:20:02.036Z,1016.27
2022-08-08T01:20:49.903Z,1016.23
2022-08-08T01:22:10.142Z,1016.18
2022-08-08T01:22:50.511Z,1016.19
2022-08-08T01:24:06.158Z,1016.22
2022-08-08T01:24:53.733Z,1016.19
2022-08-08T01:25:48.839Z,1016.19
2022-08-08T01:26:49.821Z,1016.19
2022-08-08T01:27:48.810Z,1016.20
2022-08-08T01:28:48.815Z,1016.23
2022-08-08T01:29:59.479Z,1016.23
2022-08-08T01:30:53.647Z,1016.22
2022-08-08T01:32:06.839Z,1016.23
2022-08-08T01:32:51.883Z,1016.22
2022-08-08T01:34:00.592Z,1016.20
2022-08-08T01:34:49.772Z,1016.22
2022-08-08T01:35:48.722Z,1016.23
2022-08-08T01:36:48.761Z,1016.24
2022-08-08T01:37:58.205Z,1016.23
2022-08-08T01:38:49.693Z,1016.22
2022-08-08T01:39:48.713Z,1016.23
2022-08-08T01:40:48.663Z,1016.19
2022-08-08T01:41:48.663Z,1016.19
2022-08-08T01:42:48.641Z,1016.18
2022-08-08T01:43:48.643Z,1016.17
2022-08-08T01:44:50.527Z,1016.20
2022-08-08T01:45:50.422Z,1016.14
2022-08-08T01:46:52.602Z,1016.14
2022-08-08T01:48:14.413Z,1016.12
2022-08-08T01:48:51.231Z,1016.12
2022-08-08T01:49:48.605Z,1016.13
2022-08-08T01:50:50.507Z,1016.09
2022-08-08T01:52:04.929Z,1016.08
2022-08-08T01:53:57.117Z,1016.06
2022-08-08T01:55:14.842Z,1016.06
2022-08-08T01:55:46.330Z,1016.06
2022-08-08T01:56:29.131Z,1016.07
2022-08-08T01:56:49.493Z,1016.10
2022-08-08T01:58:10.946Z,1016.07
2022-08-08T01:58:49.658Z,1016.08
2022-08-08T02:00:01.733Z,1016.10
2022-08-08T02:00:49.511Z,1016.06
2022-08-08T02:01:59.717Z,1016.07
2022-08-08T02:02:49.419Z,1016.10
2022-08-08T02:03:56.122Z,1016.07
2022-08-08T02:04:52.191Z,1016.08
2022-08-08T02:05:55.804Z,1016.06
2022-08-08T02:06:49.387Z,1016.09
2022-08-08T02:07:48.941Z,1016.06
2022-08-08T02:08:48.366Z,1016.10
2022-08-08T02:10:03.920Z,1016.13
2022-08-08T02:10:49.358Z,1016.11
2022-08-08T02:11:58.741Z,1016.14
2022-08-08T02:12:49.335Z,1016.12
2022-08-08T02:13:53.667Z,1016.14
2022-08-08T02:14:49.778Z,1016.17
2022-08-08T02:15:49.291Z,1016.18
2022-08-08T02:16:48.280Z,1016.19
2022-08-08T02:17:48.251Z,1016.20
2022-08-08T02:18:48.242Z,1016.16
2022-08-08T02:20:07.801Z,1016.19
2022-08-08T02:21:00.751Z,1016.15
2022-08-08T02:21:49.223Z,1016.16
2022-08-08T02:22:54.627Z,1016.14
2022-08-08T02:23:49.248Z,1016.15
2022-08-08T02:24:49.180Z,1016.12
2022-08-08T02:25:48.903Z,1016.14
2022-08-08T02:26:48.171Z,1016.15
2022-08-08T02:27:48.143Z,1016.16
2022-08-08T02:28:51.774Z,1016.16
2022-08-08T02:29:52.539Z,1016.23
2022-08-08T02:30:50.065Z,1016.21
2022-08-08T02:32:00.814Z,1016.20
2022-08-08T02:32:49.103Z,1016.23
2022-08-08T02:34:07.216Z,1016.21
2022-08-08T02:35:08.856Z,1016.22
2022-08-08T02:36:04.924Z,1016.18
2022-08-08T02:36:49.067Z,1016.28
2022-08-08T02:37:51.345Z,1016.22
2022-08-08T02:38:50.575Z,1016.24
2022-08-08T02:40:00.301Z,1016.26
2022-08-08T02:40:50.109Z,1016.27
2022-08-08T02:41:59.330Z,1016.25
2022-08-08T02:44:35.573Z,1016.25
2022-08-08T02:44:43.161Z,1016.23
2022-08-08T02:44:57.747Z,1016.23
2022-08-08T02:45:54.217Z,1016.27
2022-08-08T02:46:50.623Z,1016.30
2022-08-08T02:47:52.110Z,1016.31
2022-08-08T02:48:48.916Z,1016.36
2022-08-08T02:49:51.786Z,1016.32
2022-08-08T02:50:55.616Z,1016.34
2022-08-08T02:51:56.854Z,1016.34
2022-08-08T02:52:50.877Z,1016.42
2022-08-08T02:53:47.858Z,1016.43
2022-08-08T02:54:50.131Z,1016.37
2022-08-08T02:55:47.838Z,1016.39
2022-08-08T02:56:48.928Z,1016.40
2022-08-08T02:57:50.656Z,1016.38
2022-08-08T02:58:47.824Z,1016.43
2022-08-08T03:00:15.983Z,1016.43
2022-08-08T03:00:50.958Z,1016.42
2022-08-08T03:01:50.664Z,1016.40
2022-08-08T03:02:50.390Z,1016.39
2022-08-08T03:05:04.487Z,1016.41
2022-08-08T03:05:04.488Z,1016.38
2022-08-08T03:05:53.379Z,1016.37
2022-08-08T03:06:47.721Z,1016.32
2022-08-08T03:07:57.724Z,1016.34
2022-08-08T03:08:52.070Z,1016.36
2022-08-08T03:09:47.682Z,1016.37
2022-08-08T03:10:53.585Z,1016.34
2022-08-08T03:12:02.962Z,1016.33
2022-08-08T03:13:01.025Z,1016.38
2022-08-08T03:15:56.984Z,1016.39
2022-08-08T03:15:57.495Z,1016.41
2022-08-08T03:15:59.561Z,1016.39
2022-08-08T03:16:48.867Z,1016.42
2022-08-08T03:17:59.851Z,1016.39
2022-08-08T03:18:48.594Z,1016.39
2022-08-08T03:19:51.210Z,1016.38
2022-08-08T03:20:51.336Z,1016.42
2022-08-08T03:21:58.298Z,1016.43
2022-08-08T03:22:56.474Z,1016.43
2022-08-08T03:23:59.289Z,1016.42
2022-08-08T03:24:48.527Z,1016.42
2022-08-08T03:25:50.343Z,1016.49
2022-08-08T03:26:47.517Z,1016.48
2022-08-08T03:27:47.486Z,1016.46
2022-08-08T03:28:51.084Z,1016.49
2022-08-08T03:29:56.044Z,1016.50
2022-08-08T03:30:49.035Z,1016.51
2022-08-08T03:32:06.361Z,1016.52
2022-08-08T03:32:58.697Z,1016.52
2022-08-08T03:34:00.563Z,1016.53
2022-08-08T03:34:48.408Z,1016.53
2022-08-08T03:35:47.409Z,1016.58
2022-08-08T03:36:47.398Z,1016.54
2022-08-08T03:38:54.775Z,1016.55
2022-08-08T03:38:54.903Z,1016.54
2022-08-08T03:39:52.117Z,1016.56
2022-08-08T03:40:51.690Z,1016.58
2022-08-08T03:42:27.434Z,1016.56
2022-08-08T03:42:48.346Z,1016.57
2022-08-08T03:43:47.319Z,1016.57
2022-08-08T03:44:52.091Z,1016.56
2022-08-08T03:46:06.059Z,1016.57
2022-08-08T03:46:48.279Z,1016.56
2022-08-08T03:47:49.114Z,1016.55
2022-08-08T03:49:38.197Z,1016.55
2022-08-08T03:49:58.156Z,1016.59
2022-08-08T03:50:48.568Z,1016.57
2022-08-08T03:51:51.306Z,1016.56
2022-08-08T03:52:47.231Z,1016.58
2022-08-08T03:53:47.624Z,1016.58
2022-08-08T03:55:01.635Z,1016.57
2022-08-08T03:55:56.424Z,1016.59
2022-08-08T03:56:48.167Z,1016.58
2022-08-08T03:58:34.620Z,1016.60
2022-08-08T03:58:48.151Z,1016.59
2022-08-08T04:00:01.353Z,1016.61
2022-08-08T04:01:01.608Z,1016.64
2022-08-08T04:02:12.448Z,1016.63
2022-08-08T04:02:51.705Z,1016.61
2022-08-08T04:03:57.574Z,1016.66
2022-08-08T04:04:48.141Z,1016.64
2022-08-08T04:05:49.804Z,1016.63
2022-08-08T04:06:47.073Z,1016.67
2022-08-08T04:07:47.083Z,1016.66
2022-08-08T04:08:47.053Z,1016.67
2022-08-08T04:10:00.431Z,1016.64
2022-08-08T04:10:48.038Z,1016.70
2022-08-08T04:11:58.224Z,1016.68
2022-08-08T04:12:48.006Z,1016.68
2022-08-08T04:14:03.242Z,1016.69
2022-08-08T04:14:50.768Z,1016.65
2022-08-08T04:15:54.690Z,1016.65
2022-08-08T04:16:49.250Z,1016.70
2022-08-08T04:17:58.860Z,1016.68
2022-08-08T04:18:48.720Z,1016.65
2022-08-08T04:19:46.917Z,1016.67
2022-08-08T04:20:46.906Z,1016.69
2022-08-08T04:21:46.887Z,1016.70
2022-08-08T04:22:46.897Z,1016.69
2022-08-08T04:24:05.368Z,1016.71
2022-08-08T04:24:50.092Z,1016.74
2022-08-08T04:25:46.847Z,1016.75
2022-08-08T04:26:57.363Z,1016.76
2022-08-08T04:28:35.831Z,1016.74
2022-08-08T04:28:47.818Z,1016.76
2022-08-08T04:30:00.843Z,1016.77
2022-08-08T04:30:47.788Z,1016.82
2022-08-08T04:31:58.426Z,1016.81
2022-08-08T04:32:50.084Z,1016.85
2022-08-08T04:33:46.761Z,1016.84
2022-08-08T04:34:49.437Z,1016.85
2022-08-08T04:35:51.080Z,1016.82
2022-08-08T04:36:46.732Z,1016.83
2022-08-08T04:37:46.720Z,1016.80
2022-08-08T04:38:47.496Z,1016.84
2022-08-08T04:40:03.601Z,1016.84
2022-08-08T04:40:53.622Z,1016.87
2022-08-08T04:41:47.680Z,1016.88
2022-08-08T04:42:56.948Z,1016.86
2022-08-08T04:43:51.161Z,1016.89
2022-08-08T04:44:48.003Z,1016.85
2022-08-08T04:45:46.637Z,1016.85
2022-08-08T04:46:46.624Z,1016.86
2022-08-08T04:47:47.089Z,1016.87
2022-08-08T04:48:46.591Z,1016.89
2022-08-08T04:50:00.662Z,1016.94
2022-08-08T04:50:47.572Z,1016.93
2022-08-08T04:51:56.843Z,1016.93
2022-08-08T04:52:48.603Z,1016.90
2022-08-08T04:54:36.448Z,1016.88
2022-08-08T04:54:50.642Z,1016.95
2022-08-08T04:55:55.211Z,1016.92
2022-08-08T04:56:47.505Z,1016.93
2022-08-08T04:57:46.514Z,1016.90
2022-08-08T04:58:48.334Z,1016.94
2022-08-08T04:59:46.475Z,1016.93
2022-08-08T05:00:48.361Z,1016.93
2022-08-08T05:01:47.972Z,1016.92
2022-08-08T05:02:46.703Z,1016.98
2022-08-08T05:04:09.118Z,1016.98
2022-08-08T05:04:47.425Z,1016.96
2022-08-08T05:05:46.414Z,1016.97
2022-08-08T05:06:47.408Z,1016.97
2022-08-08T05:07:46.407Z,1016.98
2022-08-08T05:08:46.397Z,1016.97
2022-08-08T05:09:47.359Z,1016.95
2022-08-08T05:10:46.367Z,1016.99
2022-08-08T05:11:47.724Z,1017.02
2022-08-08T05:13:01.634Z,1017.00
2022-08-08T05:13:58.099Z,1016.97
2022-08-08T05:14:47.309Z,1017.00
2022-08-08T05:16:51.309Z,1016.99
2022-08-08T05:16:55.602Z,1017.00
2022-08-08T05:17:54.373Z,1016.98
2022-08-08T05:18:47.270Z,1017.00
2022-08-08T05:20:09.994Z,1017.01
2022-08-08T05:20:50.277Z,1017.00
2022-08-08T05:21:59.552Z,1016.99
2022-08-08T05:22:47.230Z,1017.05
2022-08-08T05:23:46.270Z,1017.01
2022-08-08T05:24:48.208Z,1017.01
2022-08-08T05:25:46.770Z,1017.03
2022-08-08T05:26:46.180Z,1017.02
2022-08-08T05:27:46.161Z,1017.05
2022-08-08T05:28:55.977Z,1017.04
2022-08-08T05:29:51.831Z,1017.05
2022-08-08T05:30:47.609Z,1017.01
2022-08-08T05:32:05.384Z,1017.03
2022-08-08T05:32:47.126Z,1017.09
2022-08-08T05:33:49.454Z,1017.09
2022-08-08T05:34:46.094Z,1017.09
2022-08-08T05:35:46.093Z,1017.11
2022-08-08T05:36:47.063Z,1017.12
2022-08-08T05:37:52.719Z,1017.17
2022-08-08T05:38:47.123Z,1017.17
2022-08-08T05:39:46.126Z,1017.21
2022-08-08T05:40:46.034Z,1017.22
2022-08-08T05:41:55.601Z,1017.22
2022-08-08T05:42:49.059Z,1017.24
2022-08-08T05:44:03.650Z,1017.23
2022-08-08T05:44:46.990Z,1017.25
2022-08-08T05:45:54.770Z,1017.22
2022-08-08T05:46:47.524Z,1017.23
2022-08-08T05:48:00.135Z,1017.20
2022-08-08T05:48:49.860Z,1017.19
2022-08-08T05:49:54.202Z,1017.20
2022-08-08T05:50:46.915Z,1017.23
2022-08-08T05:51:49.100Z,1017.25
2022-08-08T05:52:45.916Z,1017.26
2022-08-08T05:54:24.350Z,1017.24
2022-08-08T05:54:50.927Z,1017.25
2022-08-08T05:56:09.637Z,1017.29
2022-08-08T05:56:48.370Z,1017.25
2022-08-08T05:57:45.857Z,1017.29
2022-08-08T05:58:58.006Z,1017.28
2022-08-08T05:59:59.141Z,1017.28
2022-08-08T06:00:56.795Z,1017.26
2022-08-08T06:01:55.397Z,1017.27
2022-08-08T06:02:47.876Z,1017.27
2022-08-08T06:03:45.884Z,1017.26
2022-08-08T06:04:54.424Z,1017.27
2022-08-08T06:05:46.751Z,1017.24
2022-08-08T06:06:48.089Z,1017.28
2022-08-08T06:07:46.112Z,1017.33
2022-08-08T06:08:53.105Z,1017.29
2022-08-08T06:10:01.012Z,1017.33
2022-08-08T06:10:46.702Z,1017.35
2022-08-08T06:11:46.088Z,1017.29
2022-08-08T06:12:45.723Z,1017.30
2022-08-08T06:13:47.446Z,1017.35
2022-08-08T06:14:47.722Z,1017.36
2022-08-08T06:15:53.675Z,1017.41
2022-08-08T06:16:46.656Z,1017.37
2022-08-08T06:17:51.522Z,1017.38
2022-08-08T06:18:46.607Z,1017.36
2022-08-08T06:19:45.596Z,1017.37
2022-08-08T06:20:45.947Z,1017.36
2022-08-08T06:21:51.150Z,1017.37
2022-08-08T06:22:46.576Z,1017.36
2022-08-08T06:23:53.111Z,1017.38
2022-08-08T06:24:50.909Z,1017.38
2022-08-08T06:26:43.471Z,1017.42
2022-08-08T06:26:50.665Z,1017.38
2022-08-08T06:27:48.356Z,1017.41
2022-08-08T06:28:45.497Z,1017.43
2022-08-08T06:29:59.719Z,1017.44
2022-08-08T06:30:46.469Z,1017.45
2022-08-08T06:31:52.917Z,1017.47
2022-08-08T06:32:47.788Z,1017.46
2022-08-08T06:34:26.727Z,1017.48
2022-08-08T06:34:56.585Z,1017.46
2022-08-08T06:36:08.947Z,1017.46
2022-08-08T06:36:53.421Z,1017.45
2022-08-08T06:37:46.402Z,1017.46
2022-08-08T06:38:45.385Z,1017.44
2022-08-08T06:39:56.027Z,1017.43
2022-08-08T06:40:48.544Z,1017.47
2022-08-08T06:41:46.375Z,1017.44
2022-08-08T06:42:45.392Z,1017.40
2022-08-08T06:43:56.933Z,1017.44
2022-08-08T06:44:46.323Z,1017.43
2022-08-08T06:45:45.304Z,1017.41
2022-08-08T06:46:45.296Z,1017.45
2022-08-08T06:47:58.208Z,1017.47
2022-08-08T06:48:46.282Z,1017.48
2022-08-08T06:49:55.174Z,1017.50
2022-08-08T06:50:46.258Z,1017.59
2022-08-08T06:51:47.066Z,1017.59
2022-08-08T06:52:47.882Z,1017.56
2022-08-08T06:53:51.266Z,1017.54
2022-08-08T06:54:48.995Z,1017.56
2022-08-08T06:55:47.366Z,1017.61
2022-08-08T06:56:51.234Z,1017.55
2022-08-08T06:57:56.103Z,1017.58
2022-08-08T06:58:46.163Z,1017.54
2022-08-08T07:00:11.404Z,1017.56
2022-08-08T07:00:46.156Z,1017.62
2022-08-08T07:02:27.156Z,1017.63
2022-08-08T07:02:46.426Z,1017.58
2022-08-08T07:03:51.879Z,1017.62
2022-08-08T07:04:51.968Z,1017.64
2022-08-08T07:05:46.137Z,1017.66
2022-08-08T07:06:46.106Z,1017.64
2022-08-08T07:07:45.085Z,1017.66
2022-08-08T07:08:45.056Z,1017.71
2022-08-08T07:09:56.305Z,1017.69
2022-08-08T07:10:47.902Z,1017.72
2022-08-08T07:11:50.864Z,1017.76
2022-08-08T07:12:47.983Z,1017.80
2022-08-08T07:14:00.958Z,1017.77
2022-08-08T07:14:45.989Z,1017.74
2022-08-08T07:16:04.394Z,1017.70
2022-08-08T07:16:51.064Z,1017.68
2022-08-08T07:18:01.766Z,1017.73
2022-08-08T07:18:46.037Z,1017.70
2022-08-08T07:19:44.940Z,1017.74
2022-08-08T07:20:50.620Z,1017.78
2022-08-08T07:21:45.921Z,1017.72
2022-08-08T07:22:44.920Z,1017.75
2022-08-08T07:24:01.899Z,1017.73
2022-08-08T07:24:46.579Z,1017.73
2022-08-08T07:25:54.721Z,1017.76
2022-08-08T07:26:46.858Z,1017.82
2022-08-08T07:28:00.676Z,1017.79
2022-08-08T07:28:45.856Z,1017.81
2022-08-08T07:30:00.870Z,1017.79
2022-08-08T07:30:45.837Z,1017.79
2022-08-08T07:31:44.816Z,1017.83
2022-08-08T07:32:44.817Z,1017.78
2022-08-08T07:33:53.260Z,1017.77
2022-08-08T07:34:59.313Z,1017.77
2022-08-08T07:35:45.798Z,1017.78
2022-08-08T07:36:48.088Z,1017.80
2022-08-08T07:38:04.141Z,1017.88
2022-08-08T07:38:47.399Z,1017.86
2022-08-08T07:39:57.722Z,1017.85
2022-08-08T07:40:45.784Z,1017.81
2022-08-08T07:42:04.298Z,1017.89
2022-08-08T07:42:45.702Z,1017.84
2022-08-08T07:43:53.464Z,1017.90
2022-08-08T07:44:45.683Z,1017.91
2022-08-08T07:46:05.170Z,1017.86
2022-08-08T07:46:45.653Z,1017.85
2022-08-08T07:47:49.153Z,1017.89
2022-08-08T07:48:45.634Z,1017.84
2022-08-08T07:49:46.236Z,1017.86
2022-08-08T07:50:44.624Z,1017.86
2022-08-08T07:51:53.493Z,1017.87
2022-08-08T07:52:45.598Z,1017.85
2022-08-08T07:54:00.959Z,1017.86
2022-08-08T07:54:45.578Z,1017.82
2022-08-08T07:55:44.567Z,1017.81
2022-08-08T07:56:44.550Z,1017.83
2022-08-08T07:57:48.438Z,1017.87
2022-08-08T07:58:44.549Z,1017.83
2022-08-08T07:59:45.511Z,1017.83
2022-08-08T08:00:44.574Z,1017.88
2022-08-08T08:02:33.084Z,1017.93
2022-08-08T08:02:45.577Z,1017.91
2022-08-08T08:03:44.494Z,1017.94
2022-08-08T08:04:44.475Z,1017.90
2022-08-08T08:05:45.251Z,1017.92
2022-08-08T08:06:45.462Z,1017.90
2022-08-08T08:07:45.934Z,1017.91
2022-08-08T08:08:52.157Z,1017.94
2022-08-08T08:09:45.417Z,1017.91
2022-08-08T08:10:44.415Z,1017.91
2022-08-08T08:11:51.478Z,1017.90
2022-08-08T08:12:45.387Z,1017.89
2022-08-08T08:14:07.537Z,1017.91
2022-08-08T08:14:45.392Z,1017.90
2022-08-08T08:15:44.358Z,1017.94
2022-08-08T08:16:48.499Z,1017.95
2022-08-08T08:17:48.270Z,1017.89
2022-08-08T08:18:52.151Z,1017.94
2022-08-08T08:19:46.203Z,1017.87
2022-08-08T08:20:45.327Z,1017.90
2022-08-08T08:21:57.866Z,1017.88
2022-08-08T08:22:45.292Z,1017.89
2022-08-08T08:23:44.314Z,1017.93
2022-08-08T08:24:46.430Z,1017.92
2022-08-08T08:25:55.125Z,1017.90
2022-08-08T08:26:46.998Z,1017.89
2022-08-08T08:27:46.720Z,1017.89
2022-08-08T08:28:44.244Z,1017.85
2022-08-08T08:29:44.218Z,1017.89
2022-08-08T08:30:45.760Z,1017.87
2022-08-08T08:31:44.196Z,1017.86
2022-08-08T08:32:51.312Z,1017.86
2022-08-08T08:33:45.220Z,1017.87
2022-08-08T08:34:49.233Z,1017.80
2022-08-08T08:36:21.077Z,1017.83
2022-08-08T08:36:45.161Z,1017.79
2022-08-08T08:38:13.096Z,1017.78
2022-08-08T08:38:49.416Z,1017.77
2022-08-08T08:40:01.087Z,1017.76
2022-08-08T08:40:48.569Z,1017.76
2022-08-08T08:41:45.091Z,1017.75
2022-08-08T08:42:44.082Z,1017.79
2022-08-08T08:43:45.112Z,1017.78
2022-08-08T08:44:44.083Z,1017.77
2022-08-08T08:45:44.055Z,1017.77
2022-08-08T08:46:45.593Z,1017.72
2022-08-08T08:47:45.057Z,1017.76
2022-08-08T08:48:49.498Z,1017.74
2022-08-08T08:49:45.046Z,1017.75
2022-08-08T08:50:44.018Z,1017.78
2022-08-08T08:51:50.887Z,1017.75
2022-08-08T08:52:58.474Z,1017.73
2022-08-08T08:53:58.964Z,1017.71
2022-08-08T08:54:44.999Z,1017.75
2022-08-08T08:55:43.959Z,1017.71
2022-08-08T08:56:43.949Z,1017.69
2022-08-08T08:57:43.929Z,1017.70
2022-08-08T08:58:49.888Z,1017.68
2022-08-08T09:00:01.443Z,1017.74
2022-08-08T09:01:05.032Z,1017.72
2022-08-08T09:01:45.486Z,1017.72
2022-08-08T09:02:43.893Z,1017.77
2022-08-08T09:03:46.900Z,1017.73
2022-08-08T09:04:49.703Z,1017.78
2022-08-08T09:05:54.188Z,1017.77
2022-08-08T09:06:50.385Z,1017.84
2022-08-08T09:07:52.251Z,1017.82
2022-08-08T09:08:44.834Z,1017.85
2022-08-08T09:09:47.686Z,1017.80
2022-08-08T09:10:43.828Z,1017.78
2022-08-08T09:11:47.645Z,1017.77
2022-08-08T09:12:45.405Z,1017.76
2022-08-08T09:13:43.778Z,1017.76
2022-08-08T09:14:45.219Z,1017.76
2022-08-08T09:15:43.770Z,1017.77
2022-08-08T09:16:43.749Z,1017.82
2022-08-08T09:17:52.224Z,1017.81
2022-08-08T09:18:44.737Z,1017.80
2022-08-08T09:21:56.925Z,1017.78
2022-08-08T09:22:00.704Z,1017.77
2022-08-08T09:22:02.277Z,1017.82
2022-08-08T09:22:44.694Z,1017.77
2022-08-08T09:23:43.763Z,1017.79
2022-08-08T09:24:43.679Z,1017.82
2022-08-08T09:25:54.770Z,1017.77
2022-08-08T09:26:49.655Z,1017.83
2022-08-08T09:27:56.794Z,1017.83
2022-08-08T09:28:44.655Z,1017.86
2022-08-08T09:29:52.290Z,1017.85
2022-08-08T09:30:44.627Z,1017.88
2022-08-08T09:31:56.653Z,1017.85
2022-08-08T09:33:12.182Z,1017.83
2022-08-08T09:34:14.975Z,1017.79
2022-08-08T09:34:45.595Z,1017.79
2022-08-08T09:35:49.219Z,1017.79
2022-08-08T09:36:51.810Z,1017.78
2022-08-08T09:38:01.145Z,1017.77
2022-08-08T09:38:52.916Z,1017.75
2022-08-08T09:39:44.538Z,1017.74
2022-08-08T09:40:46.540Z,1017.78
2022-08-08T09:42:13.833Z,1017.74
2022-08-08T09:42:51.221Z,1017.71
2022-08-08T09:44:06.283Z,1017.74
2022-08-08T09:44:44.483Z,1017.72
2022-08-08T09:46:02.051Z,1017.76
2022-08-08T09:46:45.484Z,1017.67
2022-08-08T09:48:10.357Z,1017.68
2022-08-08T09:48:49.975Z,1017.63
2022-08-08T09:49:49.816Z,1017.61
2022-08-08T09:50:50.202Z,1017.59
2022-08-08T09:52:01.933Z,1017.55
2022-08-08T09:53:15.379Z,1017.57
2022-08-08T09:53:59.166Z,1017.56
2022-08-08T09:54:44.636Z,1017.51
2022-08-08T09:56:04.260Z,1017.53
2022-08-08T09:56:45.308Z,1017.53
2022-08-08T09:57:46.288Z,1017.54
2022-08-08T09:58:44.589Z,1017.50
2022-08-08T10:00:01.220Z,1017.49
2022-08-08T10:00:53.376Z,1017.53
2022-08-08T10:01:59.470Z,1017.46
2022-08-08T10:02:44.883Z,1017.44
2022-08-08T10:03:43.310Z,1017.46
2022-08-08T10:04:47.850Z,1017.45
2022-08-08T10:05:46.801Z,1017.44
2022-08-08T10:06:45.125Z,1017.45
2022-08-08T10:07:45.098Z,1017.47
2022-08-08T10:08:43.264Z,1017.46
2022-08-08T10:10:00.015Z,1017.46
2022-08-08T10:10:50.979Z,1017.46
2022-08-08T10:12:27.034Z,1017.46
2022-08-08T10:12:54.147Z,1017.41
2022-08-08T10:13:44.217Z,1017.38
2022-08-08T10:14:44.208Z,1017.35
2022-08-08T10:16:00.381Z,1017.37
2022-08-08T10:16:44.199Z,1017.33
2022-08-08T10:18:07.409Z,1017.31
2022-08-08T10:18:44.163Z,1017.33
2022-08-08T10:19:57.815Z,1017.29
2022-08-08T10:20:51.457Z,1017.31
2022-08-08T10:21:44.177Z,1017.30
2022-08-08T10:22:54.986Z,1017.31
2022-08-08T10:23:47.132Z,1017.30
2022-08-08T10:24:44.103Z,1017.29
2022-08-08T10:25:56.924Z,1017.27
2022-08-08T10:26:57.596Z,1017.24
2022-08-08T10:27:44.094Z,1017.26
2022-08-08T10:28:43.154Z,1017.23
2022-08-08T10:29:58.701Z,1017.24
2022-08-08T10:30:59.821Z,1017.23
2022-08-08T10:31:47.415Z,1017.19
2022-08-08T10:32:50.736Z,1017.19
2022-08-08T10:34:18.455Z,1017.21
2022-08-08T10:34:44.028Z,1017.19
2022-08-08T10:36:08.801Z,1017.21
2022-08-08T10:36:43.989Z,1017.20
2022-08-08T10:37:43.017Z,1017.20
2022-08-08T10:38:42.980Z,1017.20
2022-08-08T10:39:53.616Z,1017.17
2022-08-08T10:40:44.019Z,1017.17
2022-08-08T10:42:12.981Z,1017.18
2022-08-08T10:42:44.912Z,1017.14
2022-08-08T10:43:43.251Z,1017.14
2022-08-08T10:44:42.922Z,1017.13
2022-08-08T10:45:42.919Z,1017.15
2022-08-08T10:46:43.912Z,1017.11
2022-08-08T10:47:43.025Z,1017.16
2022-08-08T10:48:57.308Z,1017.14
2022-08-08T10:50:01.185Z,1017.10
2022-08-08T10:50:43.875Z,1017.08
2022-08-08T10:51:51.102Z,1017.10
2022-08-08T10:52:44.522Z,1017.02
2022-08-08T10:53:57.463Z,1017.02
2022-08-08T10:54:43.826Z,1017.02
2022-08-08T10:55:46.959Z,1017.10
2022-08-08T10:56:43.166Z,1017.05
2022-08-08T10:57:50.208Z,1017.04
2022-08-08T10:58:54.631Z,1017.07
2022-08-08T10:59:43.798Z,1017.02
2022-08-08T11:00:48.836Z,1017.03
2022-08-08T11:01:43.866Z,1017.01
2022-08-08T11:02:42.770Z,1017.00
2022-08-08T11:04:00.953Z,1016.99
2022-08-08T11:04:43.740Z,1016.96
2022-08-08T11:05:43.739Z,1016.97
2022-08-08T11:06:47.389Z,1016.97
2022-08-08T11:08:31.825Z,1016.94
2022-08-08T11:08:53.505Z,1017.03
2022-08-08T11:09:43.706Z,1016.96
2022-08-08T11:10:42.695Z,1016.95
2022-08-08T11:12:06.064Z,1016.94
2022-08-08T11:12:43.674Z,1016.94
2022-08-08T11:13:59.716Z,1016.87
2022-08-08T11:14:43.655Z,1016.84
2022-08-08T11:15:54.775Z,1016.82
2022-08-08T11:16:46.610Z,1016.80
2022-08-08T11:17:59.877Z,1016.79
2022-08-08T11:18:43.617Z,1016.81
2022-08-08T11:19:43.614Z,1016.84
2022-08-08T11:20:42.599Z,1016.82
2022-08-08T11:21:43.591Z,1016.80
2022-08-08T11:22:43.578Z,1016.78
2022-08-08T11:23:42.590Z,1016.74
2022-08-08T11:24:42.558Z,1016.70
2022-08-08T11:25:51.678Z,1016.76
2022-08-08T11:26:56.372Z,1016.66
2022-08-08T11:27:44.579Z,1016.66
2022-08-08T11:28:42.550Z,1016.67
2022-08-08T11:30:18.825Z,1016.63
2022-08-08T11:30:50.092Z,1016.65
2022-08-08T11:31:43.509Z,1016.59
2022-08-08T11:32:42.502Z,1016.65
2022-08-08T11:33:53.278Z,1016.62
2022-08-08T11:34:58.934Z,1016.63
2022-08-08T11:35:43.679Z,1016.69
2022-08-08T11:36:42.446Z,1016.69
2022-08-08T11:38:39.785Z,1016.73
2022-08-08T11:38:54.016Z,1016.73
2022-08-08T11:39:43.461Z,1016.75
2022-08-08T11:40:44.244Z,1016.70
2022-08-08T11:41:42.436Z,1016.73
2022-08-08T11:42:42.411Z,1016.72
2022-08-08T11:43:42.641Z,1016.73
2022-08-08T11:44:42.377Z,1016.74
2022-08-08T11:46:00.142Z,1016.76
2022-08-08T11:46:43.358Z,1016.76
2022-08-08T11:48:02.665Z,1016.76
2022-08-08T11:48:44.970Z,1016.71
2022-08-08T11:49:42.340Z,1016.71
2022-08-08T11:50:42.322Z,1016.72
2022-08-08T11:51:50.345Z,1016.69
2022-08-08T11:52:45.258Z,1016.66
2022-08-08T11:53:42.958Z,1016.66
2022-08-08T11:54:44.829Z,1016.64
2022-08-08T11:55:42.300Z,1016.58
2022-08-08T11:56:43.274Z,1016.64
2022-08-08T11:57:42.263Z,1016.63
2022-08-08T11:58:42.275Z,1016.64
2022-08-08T12:00:00.257Z,1016.63
2022-08-08T12:00:43.236Z,1016.61
2022-08-08T12:01:42.253Z,1016.60
2022-08-08T12:02:42.341Z,1016.56
2022-08-08T12:03:42.273Z,1016.55
2022-08-08T12:04:42.284Z,1016.55